createdAt,value
2024-03-25T00:00:26.363Z,6.61
2024-03-25T00:03:17.916Z,8.97
2024-03-25T00:05:49.463Z,9.93
2024-03-25T00:08:21.017Z,9.00
2024-03-25T00:10:52.582Z,8.07
2024-03-25T00:13:24.235Z,7.44
2024-03-25T00:15:55.888Z,6.98
2024-03-25T00:18:27.656Z,6.65
2024-03-25T00:20:57.563Z,6.41
2024-03-25T00:23:29.134Z,6.19
2024-03-25T00:26:00.675Z,6.23
2024-03-25T00:28:32.234Z,8.23
2024-03-25T00:31:03.852Z,9.76
2024-03-25T00:33:35.546Z,9.16
2024-03-25T00:36:08.723Z,8.19
2024-03-25T00:38:40.294Z,7.49
2024-03-25T00:41:11.848Z,7.00
2024-03-25T00:43:44.639Z,6.62
2024-03-25T00:46:16.189Z,6.41
2024-03-25T00:48:47.744Z,7.97
2024-03-25T00:51:19.302Z,9.57
2024-03-25T00:53:50.862Z,9.05
2024-03-25T00:56:22.412Z,8.24
2024-03-25T00:58:54.389Z,7.54
2024-03-25T01:01:25.930Z,6.98
2024-03-25T01:03:57.501Z,6.61
2024-03-25T01:06:29.046Z,7.78
2024-03-25T01:09:00.604Z,9.52
2024-03-25T01:11:32.299Z,8.98
2024-03-25T01:14:03.918Z,8.01
2024-03-25T01:16:36.493Z,7.24
2024-03-25T01:19:08.050Z,6.69
2024-03-25T01:21:40.019Z,6.89
2024-03-25T01:24:11.564Z,8.91
2024-03-25T01:26:43.243Z,9.39
2024-03-25T01:29:14.676Z,8.45
2024-03-25T01:31:46.231Z,7.63
2024-03-25T01:34:17.788Z,7.02
2024-03-25T01:36:49.353Z,6.56
2024-03-25T01:39:20.899Z,7.33
2024-03-25T01:41:51.027Z,9.41
2024-03-25T01:44:22.574Z,8.87
2024-03-25T01:46:55.921Z,7.89
2024-03-25T01:49:27.940Z,7.13
2024-03-25T01:52:00.934Z,6.57
2024-03-25T01:54:34.362Z,7.33
2024-03-25T01:57:07.317Z,9.33
2024-03-25T01:59:39.896Z,8.66
2024-03-25T02:02:14.728Z,7.64
2024-03-25T02:04:47.308Z,6.85
2024-03-25T02:07:20.848Z,6.33
2024-03-25T02:09:54.516Z,7.36
2024-03-25T02:12:26.872Z,9.21
2024-03-25T02:15:00.152Z,8.60
2024-03-25T02:17:32.249Z,7.56
2024-03-25T02:20:04.112Z,6.79
2024-03-25T02:22:37.615Z,6.42
2024-03-25T02:25:11.624Z,8.04
2024-03-25T02:27:43.182Z,9.61
2024-03-25T02:30:16.635Z,8.74
2024-03-25T02:32:48.141Z,7.70
2024-03-25T02:35:19.890Z,6.92
2024-03-25T02:37:53.092Z,6.35
2024-03-25T02:40:25.261Z,7.27
2024-03-25T02:42:56.812Z,9.04
2024-03-25T02:45:28.571Z,8.46
2024-03-25T02:47:58.692Z,7.40
2024-03-25T02:50:30.254Z,6.58
2024-03-25T02:53:01.840Z,6.59
2024-03-25T02:55:33.363Z,8.72
2024-03-25T02:58:05.136Z,9.12
2024-03-25T03:00:35.651Z,8.06
2024-03-25T03:03:07.334Z,7.19
2024-03-25T03:05:38.980Z,6.58
2024-03-25T03:08:10.930Z,6.64
2024-03-25T03:10:42.495Z,8.80
2024-03-25T03:13:14.049Z,9.42
2024-03-25T03:15:48.666Z,8.47
2024-03-25T03:18:20.229Z,7.52
2024-03-25T03:20:51.783Z,6.89
2024-03-25T03:23:23.692Z,6.37
2024-03-25T03:25:55.306Z,7.26
2024-03-25T03:28:26.865Z,9.17
2024-03-25T03:30:58.407Z,8.58
2024-03-25T03:33:29.963Z,7.57
2024-03-25T03:36:01.516Z,6.81
2024-03-25T03:38:33.180Z,6.29
2024-03-25T03:41:06.204Z,6.65
2024-03-25T03:43:37.820Z,8.74
2024-03-25T03:46:09.376Z,9.17
2024-03-25T03:48:41.134Z,8.16
2024-03-25T03:51:12.526Z,7.24
2024-03-25T03:53:44.041Z,6.71
2024-03-25T03:56:15.619Z,7.98
2024-03-25T03:58:47.147Z,9.49
2024-03-25T04:01:20.599Z,8.90
2024-03-25T04:03:53.758Z,7.75
2024-03-25T04:06:26.338Z,6.98
2024-03-25T04:08:57.882Z,6.74
2024-03-25T04:11:29.436Z,8.60
2024-03-25T04:14:00.999Z,9.57
2024-03-25T04:16:33.212Z,8.63
2024-03-25T04:19:04.716Z,7.61
2024-03-25T04:21:36.271Z,6.90
2024-03-25T04:24:09.815Z,7.23
2024-03-25T04:26:41.239Z,9.07
2024-03-25T04:29:12.779Z,8.83
2024-03-25T04:31:44.542Z,7.76
2024-03-25T04:34:14.664Z,6.98
2024-03-25T04:36:46.216Z,7.25
2024-03-25T04:39:17.770Z,9.19
2024-03-25T04:41:49.943Z,9.56
2024-03-25T04:44:22.935Z,8.43
2024-03-25T04:46:54.486Z,7.42
2024-03-25T04:49:26.041Z,6.83
2024-03-25T04:51:57.597Z,8.08
2024-03-25T04:54:29.354Z,9.53
2024-03-25T04:57:00.927Z,8.85
2024-03-25T04:59:32.474Z,7.79
2024-03-25T05:02:04.605Z,7.04
2024-03-25T05:04:36.396Z,6.95
2024-03-25T05:07:06.516Z,8.83
2024-03-25T05:09:38.071Z,9.56
2024-03-25T05:12:10.381Z,8.58
2024-03-25T05:14:41.793Z,7.69
2024-03-25T05:17:13.350Z,7.03
2024-03-25T05:19:44.906Z,6.82
2024-03-25T05:22:16.464Z,8.63
2024-03-25T05:24:47.745Z,9.75
2024-03-25T05:27:19.169Z,8.86
2024-03-25T05:29:51.125Z,7.98
2024-03-25T05:32:23.137Z,7.31
2024-03-25T05:34:55.071Z,7.52
2024-03-25T05:37:26.818Z,9.72
2024-03-25T05:39:56.730Z,10.11
2024-03-25T05:42:28.297Z,8.81
2024-03-25T05:45:01.274Z,7.82
2024-03-25T05:47:32.829Z,7.39
2024-03-25T05:50:06.481Z,9.28
2024-03-25T05:52:37.992Z,10.57
2024-03-25T05:55:11.099Z,9.34
2024-03-25T05:57:42.533Z,8.18
2024-03-25T06:00:16.564Z,7.42
2024-03-25T06:02:48.521Z,8.15
2024-03-25T06:05:20.068Z,10.01
2024-03-25T06:07:51.621Z,9.39
2024-03-25T06:10:21.964Z,8.22
2024-03-25T06:12:54.537Z,7.50
2024-03-25T06:15:26.508Z,8.86
2024-03-25T06:17:58.256Z,10.02
2024-03-25T06:20:29.809Z,9.06
2024-03-25T06:23:02.611Z,8.03
2024-03-25T06:25:34.764Z,7.56
2024-03-25T06:28:08.067Z,9.30
2024-03-25T06:30:57.535Z,10.23
2024-03-25T06:33:46.912Z,8.96
2024-03-25T06:36:19.822Z,7.87
2024-03-25T06:38:51.654Z,7.85
2024-03-25T06:41:23.221Z,9.98
2024-03-25T06:43:54.772Z,9.95
2024-03-25T06:46:26.316Z,8.76
2024-03-25T06:48:57.876Z,7.97
2024-03-25T06:51:30.044Z,7.52
2024-03-25T06:54:03.239Z,8.80
2024-03-25T06:56:34.802Z,10.27
2024-03-25T06:59:06.384Z,9.32
2024-03-25T07:01:37.902Z,8.35
2024-03-25T07:04:09.667Z,7.91
2024-03-25T07:06:42.447Z,9.75
2024-03-25T07:09:15.630Z,10.01
2024-03-25T07:11:48.578Z,8.74
2024-03-25T07:14:20.607Z,7.89
2024-03-25T07:16:52.152Z,8.96
2024-03-25T07:19:23.644Z,10.53
2024-03-25T07:21:55.260Z,9.80
2024-03-25T07:24:26.817Z,8.58
2024-03-25T07:26:58.367Z,7.87
2024-03-25T07:29:30.539Z,8.83
2024-03-25T07:32:01.889Z,10.51
2024-03-25T07:34:33.616Z,9.95
2024-03-25T07:37:05.923Z,8.81
2024-03-25T07:39:37.373Z,8.01
2024-03-25T07:42:09.440Z,8.09
2024-03-25T07:44:40.892Z,10.23
2024-03-25T07:47:12.538Z,9.88
2024-03-25T07:49:44.014Z,8.81
2024-03-25T07:52:16.120Z,8.06
2024-03-25T07:54:48.553Z,8.76
2024-03-25T07:57:20.821Z,10.46
2024-03-25T07:59:52.694Z,9.92
2024-03-25T08:02:24.241Z,8.89
2024-03-25T08:04:56.410Z,8.18
2024-03-25T08:07:27.969Z,8.48
2024-03-25T08:09:59.718Z,10.40
2024-03-25T08:12:31.479Z,10.12
2024-03-25T08:15:03.059Z,8.93
2024-03-25T08:17:34.941Z,7.95
2024-03-25T08:20:09.524Z,8.54
2024-03-25T08:22:40.981Z,10.62
2024-03-25T08:25:13.214Z,9.99
2024-03-25T08:27:44.700Z,8.85
2024-03-25T08:30:16.970Z,8.53
2024-03-25T08:32:48.428Z,10.44
2024-03-25T08:35:19.980Z,11.03
2024-03-25T08:37:50.126Z,9.91
2024-03-25T08:40:21.863Z,9.00
2024-03-25T08:42:53.713Z,8.39
2024-03-25T08:45:25.434Z,9.54
2024-03-25T08:47:55.501Z,10.95
2024-03-25T08:50:27.058Z,10.04
2024-03-25T08:52:57.181Z,9.04
2024-03-25T08:55:29.965Z,8.88
2024-03-25T08:58:01.521Z,11.06
2024-03-25T09:00:33.282Z,10.61
2024-03-25T09:03:03.402Z,9.22
2024-03-25T09:05:37.307Z,8.88
2024-03-25T09:08:12.897Z,10.92
2024-03-25T09:11:08.801Z,11.06
2024-03-25T09:13:40.549Z,10.07
2024-03-25T09:16:12.510Z,9.42
2024-03-25T09:18:44.073Z,8.88
2024-03-25T09:21:15.827Z,9.69
2024-03-25T09:23:47.380Z,11.20
2024-03-25T09:26:19.002Z,10.62
2024-03-25T09:28:49.069Z,9.63
2024-03-25T09:31:20.614Z,8.82
2024-03-25T09:33:52.169Z,8.80
2024-03-25T09:36:23.727Z,10.75
2024-03-25T09:38:56.969Z,12.00
2024-03-25T09:41:30.950Z,10.93
2024-03-25T09:44:05.357Z,10.03
2024-03-25T09:46:38.561Z,9.24
2024-03-25T09:49:11.130Z,8.76
2024-03-25T09:51:42.684Z,8.47
2024-03-25T09:54:14.443Z,9.13
2024-03-25T09:56:44.572Z,11.28
2024-03-25T09:59:18.142Z,11.44
2024-03-25T10:01:49.759Z,10.66
2024-03-25T10:04:19.867Z,10.07
2024-03-25T10:06:52.284Z,9.64
2024-03-25T10:09:24.487Z,9.38
2024-03-25T10:11:55.963Z,9.07
2024-03-25T10:14:26.475Z,8.72
2024-03-25T10:16:56.591Z,8.42
2024-03-25T10:19:29.188Z,8.55
2024-03-25T10:22:07.221Z,10.67
2024-03-25T10:24:43.755Z,10.44
2024-03-25T10:27:21.880Z,9.55
2024-03-25T10:29:56.889Z,9.03
2024-03-25T10:32:30.141Z,8.74
2024-03-25T10:35:02.317Z,8.56
2024-03-25T10:37:35.597Z,8.39
2024-03-25T10:40:13.977Z,8.27
2024-03-25T10:42:49.981Z,8.19
2024-03-25T10:45:22.415Z,9.12
2024-03-25T10:47:53.964Z,11.37
2024-03-25T10:50:31.304Z,12.12
2024-03-25T10:53:04.673Z,11.32
2024-03-25T10:55:39.912Z,10.67
2024-03-25T10:58:12.432Z,10.26
2024-03-25T11:00:45.581Z,9.98
2024-03-25T11:03:17.894Z,9.72
2024-03-25T11:05:49.616Z,9.50
2024-03-25T11:08:22.495Z,9.34
2024-03-25T11:10:54.152Z,9.30
2024-03-25T11:13:25.700Z,9.43
2024-03-25T11:16:00.098Z,9.65
2024-03-25T11:18:35.092Z,9.80
2024-03-25T11:21:11.027Z,10.11
2024-03-25T11:23:46.262Z,10.39
2024-03-25T11:26:27.441Z,10.79
2024-03-25T11:28:58.997Z,10.76
2024-03-25T11:31:34.177Z,10.62
2024-03-25T11:34:09.379Z,10.43
2024-03-25T11:36:41.650Z,10.17
2024-03-25T11:39:14.369Z,9.85
2024-03-25T11:41:47.217Z,9.41
2024-03-25T11:44:20.823Z,8.97
2024-03-25T11:46:54.843Z,8.71
2024-03-25T11:49:27.194Z,9.60
2024-03-25T11:52:01.422Z,11.44
2024-03-25T11:54:32.984Z,10.99
2024-03-25T11:57:05.089Z,10.20
2024-03-25T11:59:36.919Z,9.74
2024-03-25T12:02:10.802Z,9.43
2024-03-25T12:04:46.233Z,9.12
2024-03-25T12:07:18.542Z,10.13
2024-03-25T12:10:08.324Z,11.77
2024-03-25T12:12:40.494Z,11.23
2024-03-25T12:15:12.621Z,10.41
2024-03-25T12:17:44.091Z,9.75
2024-03-25T12:20:14.787Z,9.36
2024-03-25T12:22:47.564Z,10.66
2024-03-25T12:25:23.387Z,12.15
2024-03-25T12:27:54.676Z,11.53
2024-03-25T12:30:26.323Z,10.84
2024-03-25T12:32:59.296Z,10.79
2024-03-25T12:35:37.394Z,12.27
2024-03-25T12:38:09.152Z,14.53
2024-03-25T12:40:40.715Z,16.18
2024-03-25T12:43:22.347Z,16.82
2024-03-25T12:45:59.769Z,16.30
2024-03-25T12:48:33.191Z,15.49
2024-03-25T12:51:05.988Z,14.70
2024-03-25T12:53:37.532Z,13.95
2024-03-25T12:56:10.127Z,13.29
2024-03-25T12:58:41.669Z,12.68
2024-03-25T13:01:13.639Z,12.16
2024-03-25T13:03:45.195Z,11.63
2024-03-25T13:06:16.743Z,11.15
2024-03-25T13:08:46.680Z,10.75
2024-03-25T13:11:18.434Z,10.39
2024-03-25T13:13:49.975Z,10.03
2024-03-25T13:16:21.526Z,10.14
2024-03-25T13:18:53.079Z,12.02
2024-03-25T13:21:26.717Z,12.76
2024-03-25T13:23:58.241Z,11.79
2024-03-25T13:26:28.360Z,10.90
2024-03-25T13:29:00.019Z,10.27
2024-03-25T13:31:32.909Z,9.80
2024-03-25T13:34:04.664Z,10.49
2024-03-25T13:36:36.607Z,12.62
2024-03-25T13:39:09.749Z,13.22
2024-03-25T13:41:41.787Z,12.78
2024-03-25T13:44:13.344Z,12.42
2024-03-25T13:46:43.467Z,12.13
2024-03-25T13:49:16.457Z,11.76
2024-03-25T13:51:48.662Z,11.35
2024-03-25T13:54:20.180Z,10.90
2024-03-25T13:56:50.105Z,10.56
2024-03-25T13:59:22.083Z,10.34
2024-03-25T14:01:55.258Z,10.52
2024-03-25T14:04:28.040Z,12.53
2024-03-25T14:06:59.597Z,13.76
2024-03-25T14:09:30.335Z,13.15
2024-03-25T14:12:02.301Z,12.33
2024-03-25T14:14:33.855Z,11.70
2024-03-25T14:17:03.978Z,11.35
2024-03-25T14:19:35.533Z,11.24
2024-03-25T14:22:07.084Z,11.16
2024-03-25T14:24:38.641Z,11.20
2024-03-25T14:27:10.399Z,11.19
2024-03-25T14:29:41.963Z,11.03
2024-03-25T14:32:13.514Z,10.98
2024-03-25T14:34:45.683Z,10.97
2024-03-25T14:37:18.269Z,10.87
2024-03-25T14:39:50.446Z,10.77
2024-03-25T14:42:21.994Z,10.71
2024-03-25T14:44:53.546Z,10.78
2024-03-25T14:47:25.144Z,11.12
2024-03-25T14:49:56.654Z,11.62
2024-03-25T14:52:28.212Z,12.16
2024-03-25T14:55:03.468Z,12.61
2024-03-25T14:57:35.219Z,12.79
2024-03-25T15:00:08.498Z,12.56
2024-03-25T15:02:40.158Z,12.23
2024-03-25T15:05:12.120Z,12.13
2024-03-25T15:07:43.714Z,12.04
2024-03-25T15:10:15.238Z,11.99
2024-03-25T15:12:48.427Z,11.97
2024-03-25T15:15:20.161Z,12.08
2024-03-25T15:17:51.908Z,12.38
2024-03-25T15:20:23.598Z,12.62
2024-03-25T15:22:56.694Z,12.52
2024-03-25T15:25:28.750Z,12.30
2024-03-25T15:28:00.212Z,12.03
2024-03-25T15:30:32.785Z,11.79
2024-03-25T15:33:04.575Z,11.53
2024-03-25T15:35:36.111Z,11.27
2024-03-25T15:38:08.272Z,11.04
2024-03-25T15:40:39.826Z,10.81
2024-03-25T15:43:11.382Z,10.56
2024-03-25T15:45:42.958Z,10.33
2024-03-25T15:48:14.555Z,10.07
2024-03-25T15:50:47.277Z,9.72
2024-03-25T15:53:19.037Z,9.35
2024-03-25T15:55:52.281Z,9.31
2024-03-25T15:58:23.791Z,11.06
2024-03-25T16:00:53.915Z,12.01
2024-03-25T16:03:26.819Z,11.00
2024-03-25T16:05:58.449Z,10.02
2024-03-25T16:08:28.650Z,9.33
2024-03-25T16:11:00.540Z,9.36
2024-03-25T16:13:33.542Z,11.27
2024-03-25T16:16:08.132Z,12.46
2024-03-25T16:18:40.116Z,11.76
2024-03-25T16:21:19.652Z,10.98
2024-03-25T16:23:51.276Z,10.45
2024-03-25T16:26:24.734Z,10.67
2024-03-25T16:28:56.192Z,12.54
2024-03-25T16:31:27.538Z,13.50
2024-03-25T16:33:59.720Z,12.73
2024-03-25T16:36:31.242Z,11.87
2024-03-25T16:39:04.723Z,11.21
2024-03-25T16:41:36.095Z,10.70
2024-03-25T16:44:07.587Z,10.32
2024-03-25T16:46:38.974Z,10.00
2024-03-25T16:49:10.358Z,9.68
2024-03-25T16:51:41.736Z,9.37
2024-03-25T16:54:13.170Z,9.08
2024-03-25T16:56:44.516Z,9.35
2024-03-25T16:59:15.874Z,11.31
2024-03-25T17:01:48.057Z,12.79
2024-03-25T17:04:19.797Z,12.48
2024-03-25T17:06:51.195Z,11.43
2024-03-25T17:09:22.585Z,10.61
2024-03-25T17:11:54.138Z,10.01
2024-03-25T17:14:26.027Z,10.03
2024-03-25T17:17:21.523Z,11.77
2024-03-25T17:19:49.492Z,12.80
2024-03-25T17:22:20.776Z,11.92
2024-03-25T17:24:53.812Z,10.97
2024-03-25T17:27:25.584Z,10.21
2024-03-25T17:29:57.392Z,9.65
2024-03-25T17:32:28.848Z,9.19
2024-03-25T17:35:00.262Z,9.26
2024-03-25T17:37:32.237Z,11.07
2024-03-25T17:40:05.217Z,12.46
2024-03-25T17:42:36.521Z,12.01
2024-03-25T17:45:08.897Z,10.94
2024-03-25T17:47:40.218Z,10.10
2024-03-25T17:50:12.823Z,9.49
2024-03-25T17:52:44.520Z,9.01
2024-03-25T17:55:14.419Z,9.05
2024-03-25T17:57:45.751Z,10.79
2024-03-25T18:00:17.652Z,12.12
2024-03-25T18:02:49.888Z,11.44
2024-03-25T18:05:21.314Z,10.46
2024-03-25T18:07:53.431Z,9.73
2024-03-25T18:10:24.834Z,9.19
2024-03-25T18:12:56.222Z,8.76
2024-03-25T18:15:28.000Z,8.39
2024-03-25T18:17:59.516Z,8.60
2024-03-25T18:20:30.854Z,10.57
2024-03-25T18:23:02.198Z,11.81
2024-03-25T18:25:33.700Z,11.14
2024-03-25T18:28:05.680Z,10.12
2024-03-25T18:30:37.427Z,9.37
2024-03-25T18:33:07.593Z,8.84
2024-03-25T18:35:41.050Z,8.43
2024-03-25T18:38:12.544Z,8.56
2024-03-25T18:40:44.457Z,10.36
2024-03-25T18:43:15.884Z,11.65
2024-03-25T18:45:47.235Z,10.99
2024-03-25T18:48:19.182Z,9.99
2024-03-25T18:50:50.579Z,9.25
2024-03-25T18:53:21.944Z,8.72
2024-03-25T18:55:53.316Z,8.31
2024-03-25T18:58:24.640Z,8.46
2024-03-25T19:00:55.966Z,10.27
2024-03-25T19:03:27.324Z,11.85
2024-03-25T19:05:58.713Z,11.76
2024-03-25T19:08:30.072Z,10.71
2024-03-25T19:11:01.470Z,9.86
2024-03-25T19:13:34.162Z,9.27
2024-03-25T19:16:06.520Z,8.81
2024-03-25T19:18:37.825Z,8.43
2024-03-25T19:21:09.183Z,8.57
2024-03-25T19:23:40.639Z,10.37
2024-03-25T19:26:12.112Z,11.67
2024-03-25T19:28:43.469Z,11.11
2024-03-25T19:31:14.835Z,10.14
2024-03-25T19:33:46.482Z,9.39
2024-03-25T19:36:17.860Z,8.84
2024-03-25T19:38:49.185Z,8.42
2024-03-25T19:41:21.378Z,8.62
2024-03-25T19:43:55.018Z,10.53
2024-03-25T19:46:26.374Z,11.96
2024-03-25T19:48:57.670Z,11.56
2024-03-25T19:51:29.086Z,10.52
2024-03-25T19:54:00.483Z,9.72
2024-03-25T19:56:31.848Z,9.13
2024-03-25T19:59:03.143Z,8.68
2024-03-25T20:01:35.034Z,8.76
2024-03-25T20:04:06.787Z,10.60
2024-03-25T20:06:36.648Z,11.87
2024-03-25T20:09:08.009Z,11.13
2024-03-25T20:11:39.608Z,10.09
2024-03-25T20:14:10.924Z,9.30
2024-03-25T20:16:42.744Z,8.74
2024-03-25T20:19:14.887Z,8.76
2024-03-25T20:21:46.273Z,10.57
2024-03-25T20:24:17.622Z,11.80
2024-03-25T20:26:48.974Z,11.10
2024-03-25T20:29:20.509Z,10.09
2024-03-25T20:31:52.996Z,9.33
2024-03-25T20:34:24.355Z,8.73
2024-03-25T20:36:55.745Z,8.27
2024-03-25T20:39:27.096Z,8.26
2024-03-25T20:41:58.479Z,10.03
2024-03-25T20:44:29.841Z,11.59
2024-03-25T20:47:01.163Z,11.43
2024-03-25T20:49:32.489Z,10.32
2024-03-25T20:52:03.810Z,9.41
2024-03-25T20:54:35.303Z,8.76
2024-03-25T20:57:07.304Z,8.26
2024-03-25T20:59:38.767Z,7.84
2024-03-25T21:02:10.092Z,8.08
2024-03-25T21:04:41.797Z,10.00
2024-03-25T21:07:11.675Z,11.45
2024-03-25T21:09:42.977Z,11.24
2024-03-25T21:12:15.708Z,10.19
2024-03-25T21:14:47.083Z,9.31
2024-03-25T21:17:19.051Z,8.68
2024-03-25T21:19:50.362Z,8.20
2024-03-25T21:22:23.136Z,7.79
2024-03-25T21:24:54.421Z,7.94
2024-03-25T21:27:25.768Z,9.85
2024-03-25T21:29:57.046Z,11.29
2024-03-25T21:32:27.767Z,11.02
2024-03-25T21:34:59.030Z,9.84
2024-03-25T21:37:30.397Z,8.96
2024-03-25T21:40:01.865Z,8.67
2024-03-25T21:42:33.595Z,10.27
2024-03-25T21:45:03.488Z,11.49
2024-03-25T21:47:35.025Z,10.69
2024-03-25T21:50:07.189Z,9.64
2024-03-25T21:52:38.559Z,8.83
2024-03-25T21:55:10.736Z,8.24
2024-03-25T21:57:42.135Z,7.78
2024-03-25T22:00:16.289Z,7.95
2024-03-25T22:02:47.681Z,9.90
2024-03-25T22:05:19.182Z,11.10
2024-03-25T22:07:50.632Z,10.33
2024-03-25T22:10:21.979Z,9.29
2024-03-25T22:12:53.311Z,8.49
2024-03-25T22:15:24.647Z,8.38
2024-03-25T22:17:56.348Z,10.07
2024-03-25T22:20:26.215Z,11.19
2024-03-25T22:22:57.682Z,10.35
2024-03-25T22:25:29.017Z,9.31
2024-03-25T22:28:00.397Z,8.54
2024-03-25T22:30:31.807Z,7.95
2024-03-25T22:33:03.182Z,7.88
2024-03-25T22:35:34.491Z,9.59
2024-03-25T22:38:06.064Z,11.15
2024-03-25T22:40:40.021Z,10.95
2024-03-25T22:43:11.401Z,9.74
2024-03-25T22:45:42.790Z,8.73
2024-03-25T22:48:14.164Z,8.20
2024-03-25T22:50:56.266Z,9.55
2024-03-25T22:53:28.788Z,11.09
2024-03-25T22:56:06.115Z,10.50
2024-03-25T22:58:38.420Z,9.28
2024-03-25T23:01:11.617Z,8.41
2024-03-25T23:03:42.973Z,7.77
2024-03-25T23:06:14.247Z,7.68
2024-03-25T23:08:45.630Z,9.45
2024-03-25T23:11:17.061Z,10.96
2024-03-25T23:13:48.382Z,10.68
2024-03-25T23:16:19.730Z,9.44
2024-03-25T23:18:51.515Z,8.47
2024-03-25T23:21:21.397Z,7.81
2024-03-25T23:23:52.801Z,7.31
2024-03-25T23:26:24.474Z,7.40
2024-03-25T23:28:57.184Z,9.23
2024-03-25T23:31:28.553Z,10.86
2024-03-25T23:33:59.895Z,10.90
2024-03-25T23:36:31.249Z,9.76
2024-03-25T23:39:04.408Z,8.77
2024-03-25T23:41:35.731Z,8.02
2024-03-25T23:44:07.430Z,7.46
2024-03-25T23:46:38.799Z,7.49
2024-03-25T23:49:10.123Z,9.31
2024-03-25T23:51:41.410Z,10.59
2024-03-25T23:54:14.861Z,9.79
2024-03-25T23:56:46.161Z,8.66
2024-03-25T23:59:17.555Z,7.85
